sensor_id;sensor_type;location;lat;lon;timestamp;P1;durP1;ratioP1;P2;durP2;ratioP2
75139;SDS011;63714;55.812;37.658;2023-04-06T00:00:07;7.07;;;3.88;;
75139;SDS011;63714;55.812;37.658;2023-04-06T00:02:34;5.82;;;3.85;;
75139;SDS011;63714;55.812;37.658;2023-04-06T00:05:00;8.32;;;3.70;;
75139;SDS011;63714;55.812;37.658;2023-04-06T00:07:26;5.82;;;3.72;;
75139;SDS011;63714;55.812;37.658;2023-04-06T00:09:53;5.30;;;3.60;;
75139;SDS011;63714;55.812;37.658;2023-04-06T00:12:18;6.07;;;3.60;;
75139;SDS011;63714;55.812;37.658;2023-04-06T00:14:44;5.82;;;3.42;;
75139;SDS011;63714;55.812;37.658;2023-04-06T00:17:10;7.20;;;3.85;;
75139;SDS011;63714;55.812;37.658;2023-04-06T00:19:35;6.75;;;3.35;;
75139;SDS011;63714;55.812;37.658;2023-04-06T00:22:01;8.02;;;3.50;;
75139;SDS011;63714;55.812;37.658;2023-04-06T00:24:27;5.07;;;3.83;;
75139;SDS011;63714;55.812;37.658;2023-04-06T00:26:53;7.38;;;4.00;;
75139;SDS011;63714;55.812;37.658;2023-04-06T00:29:18;5.15;;;3.55;;
75139;SDS011;63714;55.812;37.658;2023-04-06T00:31:44;7.13;;;3.70;;
75139;SDS011;63714;55.812;37.658;2023-04-06T00:34:10;5.20;;;3.72;;
75139;SDS011;63714;55.812;37.658;2023-04-06T00:36:36;8.45;;;4.15;;
75139;SDS011;63714;55.812;37.658;2023-04-06T00:39:01;11.95;;;4.50;;
75139;SDS011;63714;55.812;37.658;2023-04-06T00:41:27;6.90;;;3.83;;
75139;SDS011;63714;55.812;37.658;2023-04-06T00:43:53;6.75;;;4.10;;
75139;SDS011;63714;55.812;37.658;2023-04-06T00:46:19;6.93;;;4.13;;
75139;SDS011;63714;55.812;37.658;2023-04-06T00:48:45;8.48;;;3.85;;
75139;SDS011;63714;55.812;37.658;2023-04-06T00:51:11;7.85;;;4.57;;
75139;SDS011;63714;55.812;37.658;2023-04-06T00:53:36;7.95;;;3.75;;
75139;SDS011;63714;55.812;37.658;2023-04-06T00:56:02;7.30;;;4.28;;
75139;SDS011;63714;55.812;37.658;2023-04-06T00:58:28;7.72;;;3.80;;
75139;SDS011;63714;55.812;37.658;2023-04-06T01:00:53;7.88;;;3.95;;
75139;SDS011;63714;55.812;37.658;2023-04-06T01:03:19;5.95;;;4.03;;
75139;SDS011;63714;55.812;37.658;2023-04-06T01:05:45;5.78;;;3.72;;
75139;SDS011;63714;55.812;37.658;2023-04-06T01:08:11;9.20;;;4.63;;
75139;SDS011;63714;55.812;37.658;2023-04-06T01:10:36;7.57;;;4.57;;
75139;SDS011;63714;55.812;37.658;2023-04-06T01:13:02;13.18;;;4.40;;
75139;SDS011;63714;55.812;37.658;2023-04-06T01:15:28;14.13;;;4.80;;
75139;SDS011;63714;55.812;37.658;2023-04-06T01:17:54;9.52;;;4.82;;
75139;SDS011;63714;55.812;37.658;2023-04-06T01:20:20;9.73;;;4.50;;
75139;SDS011;63714;55.812;37.658;2023-04-06T01:22:46;8.68;;;4.53;;
75139;SDS011;63714;55.812;37.658;2023-04-06T01:25:12;82.03;;;9.18;;
75139;SDS011;63714;55.812;37.658;2023-04-06T01:27:37;8.90;;;4.03;;
75139;SDS011;63714;55.812;37.658;2023-04-06T01:30:03;9.20;;;4.88;;
75139;SDS011;63714;55.812;37.658;2023-04-06T01:32:30;6.95;;;4.65;;
75139;SDS011;63714;55.812;37.658;2023-04-06T01:34:56;10.07;;;4.32;;
75139;SDS011;63714;55.812;37.658;2023-04-06T01:37:21;6.95;;;4.53;;
75139;SDS011;63714;55.812;37.658;2023-04-06T01:39:47;6.82;;;4.35;;
75139;SDS011;63714;55.812;37.658;2023-04-06T01:42:12;9.05;;;5.25;;
75139;SDS011;63714;55.812;37.658;2023-04-06T01:44:38;8.40;;;4.70;;
75139;SDS011;63714;55.812;37.658;2023-04-06T01:47:04;6.38;;;4.47;;
75139;SDS011;63714;55.812;37.658;2023-04-06T01:49:30;7.50;;;4.38;;
75139;SDS011;63714;55.812;37.658;2023-04-06T01:51:55;6.00;;;4.10;;
75139;SDS011;63714;55.812;37.658;2023-04-06T01:54:21;8.38;;;4.40;;
75139;SDS011;63714;55.812;37.658;2023-04-06T01:56:49;7.25;;;4.40;;
75139;SDS011;63714;55.812;37.658;2023-04-06T01:59:16;8.85;;;4.22;;
75139;SDS011;63714;55.812;37.658;2023-04-06T02:01:42;8.27;;;4.65;;
75139;SDS011;63714;55.812;37.658;2023-04-06T02:04:07;6.45;;;4.45;;
75139;SDS011;63714;55.812;37.658;2023-04-06T02:06:33;6.47;;;4.55;;
75139;SDS011;63714;55.812;37.658;2023-04-06T02:08:59;7.28;;;3.95;;
75139;SDS011;63714;55.812;37.658;2023-04-06T02:11:24;7.13;;;4.70;;
75139;SDS011;63714;55.812;37.658;2023-04-06T02:13:50;10.27;;;4.32;;
75139;SDS011;63714;55.812;37.658;2023-04-06T02:16:35;7.57;;;4.10;;
75139;SDS011;63714;55.812;37.658;2023-04-06T02:19:01;5.97;;;3.90;;
75139;SDS011;63714;55.812;37.658;2023-04-06T02:21:27;10.95;;;4.78;;
75139;SDS011;63714;55.812;37.658;2023-04-06T02:23:52;7.90;;;4.53;;
75139;SDS011;63714;55.812;37.658;2023-04-06T02:26:19;9.38;;;3.92;;
75139;SDS011;63714;55.812;37.658;2023-04-06T02:28:45;8.68;;;4.20;;
75139;SDS011;63714;55.812;37.658;2023-04-06T02:31:11;8.15;;;4.10;;
75139;SDS011;63714;55.812;37.658;2023-04-06T02:33:36;7.22;;;4.55;;
75139;SDS011;63714;55.812;37.658;2023-04-06T02:36:02;9.23;;;3.92;;
75139;SDS011;63714;55.812;37.658;2023-04-06T02:38:28;8.52;;;4.38;;
75139;SDS011;63714;55.812;37.658;2023-04-06T02:40:54;8.63;;;3.85;;
75139;SDS011;63714;55.812;37.658;2023-04-06T02:43:19;6.10;;;4.00;;
75139;SDS011;63714;55.812;37.658;2023-04-06T02:45:45;6.47;;;4.03;;
75139;SDS011;63714;55.812;37.658;2023-04-06T02:48:11;19.80;;;4.32;;
75139;SDS011;63714;55.812;37.658;2023-04-06T02:50:37;6.45;;;4.03;;
75139;SDS011;63714;55.812;37.658;2023-04-06T02:53:02;9.90;;;4.57;;
75139;SDS011;63714;55.812;37.658;2023-04-06T02:55:28;6.55;;;4.30;;
75139;SDS011;63714;55.812;37.658;2023-04-06T02:57:53;7.18;;;4.10;;
75139;SDS011;63714;55.812;37.658;2023-04-06T03:00:19;6.45;;;3.80;;
75139;SDS011;63714;55.812;37.658;2023-04-06T03:02:45;7.18;;;3.88;;
75139;SDS011;63714;55.812;37.658;2023-04-06T03:05:11;6.25;;;3.70;;
75139;SDS011;63714;55.812;37.658;2023-04-06T03:07:37;6.85;;;3.65;;
75139;SDS011;63714;55.812;37.658;2023-04-06T03:10:03;5.78;;;4.07;;
75139;SDS011;63714;55.812;37.658;2023-04-06T03:12:29;6.43;;;3.83;;
75139;SDS011;63714;55.812;37.658;2023-04-06T03:14:54;7.00;;;4.13;;
75139;SDS011;63714;55.812;37.658;2023-04-06T03:17:20;6.53;;;4.25;;
75139;SDS011;63714;55.812;37.658;2023-04-06T03:19:45;8.30;;;4.15;;
75139;SDS011;63714;55.812;37.658;2023-04-06T03:22:11;7.85;;;3.47;;
75139;SDS011;63714;55.812;37.658;2023-04-06T03:24:37;10.57;;;3.80;;
75139;SDS011;63714;55.812;37.658;2023-04-06T03:27:02;7.65;;;4.32;;
75139;SDS011;63714;55.812;37.658;2023-04-06T03:29:28;6.50;;;3.45;;
75139;SDS011;63714;55.812;37.658;2023-04-06T03:31:53;11.95;;;3.95;;
75139;SDS011;63714;55.812;37.658;2023-04-06T03:34:19;8.80;;;4.50;;
75139;SDS011;63714;55.812;37.658;2023-04-06T03:36:45;9.68;;;3.80;;
75139;SDS011;63714;55.812;37.658;2023-04-06T03:39:10;8.73;;;3.78;;
75139;SDS011;63714;55.812;37.658;2023-04-06T03:41:36;11.80;;;3.63;;
75139;SDS011;63714;55.812;37.658;2023-04-06T03:44:02;6.60;;;3.42;;
75139;SDS011;63714;55.812;37.658;2023-04-06T03:46:27;11.15;;;4.00;;
75139;SDS011;63714;55.812;37.658;2023-04-06T03:48:53;6.18;;;3.40;;
75139;SDS011;63714;55.812;37.658;2023-04-06T03:51:18;5.82;;;3.45;;
75139;SDS011;63714;55.812;37.658;2023-04-06T03:53:44;9.25;;;4.43;;
75139;SDS011;63714;55.812;37.658;2023-04-06T03:56:10;13.48;;;4.15;;
75139;SDS011;63714;55.812;37.658;2023-04-06T03:58:36;6.90;;;3.25;;
75139;SDS011;63714;55.812;37.658;2023-04-06T04:01:01;4.82;;;3.10;;
75139;SDS011;63714;55.812;37.658;2023-04-06T04:03:27;6.72;;;3.35;;
75139;SDS011;63714;55.812;37.658;2023-04-06T04:05:53;10.82;;;3.45;;
75139;SDS011;63714;55.812;37.658;2023-04-06T04:08:20;14.40;;;3.53;;
75139;SDS011;63714;55.812;37.658;2023-04-06T04:10:46;9.68;;;3.22;;
75139;SDS011;63714;55.812;37.658;2023-04-06T04:13:12;8.57;;;3.83;;
75139;SDS011;63714;55.812;37.658;2023-04-06T04:15:49;11.98;;;4.72;;
75139;SDS011;63714;55.812;37.658;2023-04-06T04:19:25;5.55;;;2.88;;
75139;SDS011;63714;55.812;37.658;2023-04-06T04:25:48;11.95;;;4.80;;
75139;SDS011;63714;55.812;37.658;2023-04-06T04:28:13;8.02;;;3.13;;
75139;SDS011;63714;55.812;37.658;2023-04-06T04:30:39;34.63;;;4.45;;
75139;SDS011;63714;55.812;37.658;2023-04-06T04:33:05;6.82;;;3.08;;
75139;SDS011;63714;55.812;37.658;2023-04-06T04:35:31;5.32;;;3.17;;
75139;SDS011;63714;55.812;37.658;2023-04-06T04:37:56;8.73;;;2.92;;
75139;SDS011;63714;55.812;37.658;2023-04-06T04:40:22;11.52;;;3.38;;
75139;SDS011;63714;55.812;37.658;2023-04-06T04:42:50;4.72;;;3.10;;
75139;SDS011;63714;55.812;37.658;2023-04-06T04:45:16;9.45;;;3.25;;
75139;SDS011;63714;55.812;37.658;2023-04-06T04:47:42;6.80;;;3.15;;
75139;SDS011;63714;55.812;37.658;2023-04-06T04:50:07;6.43;;;2.60;;
75139;SDS011;63714;55.812;37.658;2023-04-06T04:52:33;6.45;;;2.95;;
75139;SDS011;63714;55.812;37.658;2023-04-06T04:54:59;8.57;;;2.83;;
75139;SDS011;63714;55.812;37.658;2023-04-06T04:57:25;14.52;;;3.63;;
75139;SDS011;63714;55.812;37.658;2023-04-06T04:59:50;8.95;;;2.70;;
75139;SDS011;63714;55.812;37.658;2023-04-06T05:02:16;8.50;;;3.80;;
75139;SDS011;63714;55.812;37.658;2023-04-06T05:04:42;7.53;;;2.92;;
75139;SDS011;63714;55.812;37.658;2023-04-06T05:07:08;3.88;;;2.15;;
75139;SDS011;63714;55.812;37.658;2023-04-06T05:09:34;5.30;;;2.80;;
75139;SDS011;63714;55.812;37.658;2023-04-06T05:12:00;5.60;;;3.03;;
75139;SDS011;63714;55.812;37.658;2023-04-06T05:14:27;6.82;;;2.80;;
75139;SDS011;63714;55.812;37.658;2023-04-06T05:16:53;15.93;;;3.15;;
75139;SDS011;63714;55.812;37.658;2023-04-06T05:19:19;4.78;;;2.78;;
75139;SDS011;63714;55.812;37.658;2023-04-06T05:21:45;8.65;;;2.67;;
75139;SDS011;63714;55.812;37.658;2023-04-06T05:24:11;5.03;;;2.28;;
75139;SDS011;63714;55.812;37.658;2023-04-06T05:26:37;5.15;;;2.28;;
75139;SDS011;63714;55.812;37.658;2023-04-06T05:29:03;7.60;;;2.88;;
75139;SDS011;63714;55.812;37.658;2023-04-06T05:31:28;3.05;;;2.33;;
75139;SDS011;63714;55.812;37.658;2023-04-06T05:33:55;8.45;;;3.35;;
75139;SDS011;63714;55.812;37.658;2023-04-06T05:36:21;6.78;;;3.15;;
75139;SDS011;63714;55.812;37.658;2023-04-06T05:38:47;6.50;;;2.47;;
75139;SDS011;63714;55.812;37.658;2023-04-06T05:41:12;10.55;;;3.50;;
75139;SDS011;63714;55.812;37.658;2023-04-06T05:43:38;6.90;;;2.70;;
75139;SDS011;63714;55.812;37.658;2023-04-06T05:46:04;11.13;;;2.40;;
75139;SDS011;63714;55.812;37.658;2023-04-06T05:48:29;5.40;;;3.22;;
75139;SDS011;63714;55.812;37.658;2023-04-06T05:50:55;15.20;;;3.63;;
75139;SDS011;63714;55.812;37.658;2023-04-06T05:53:21;8.38;;;2.70;;
75139;SDS011;63714;55.812;37.658;2023-04-06T05:55:46;11.68;;;3.22;;
75139;SDS011;63714;55.812;37.658;2023-04-06T05:58:12;18.60;;;3.88;;
75139;SDS011;63714;55.812;37.658;2023-04-06T06:00:38;18.80;;;3.65;;
75139;SDS011;63714;55.812;37.658;2023-04-06T06:03:04;32.35;;;4.40;;
75139;SDS011;63714;55.812;37.658;2023-04-06T06:05:31;11.25;;;3.40;;
75139;SDS011;63714;55.812;37.658;2023-04-06T06:07:56;7.32;;;2.72;;
75139;SDS011;63714;55.812;37.658;2023-04-06T06:10:22;9.88;;;2.65;;
75139;SDS011;63714;55.812;37.658;2023-04-06T06:12:48;6.47;;;3.28;;
75139;SDS011;63714;55.812;37.658;2023-04-06T06:15:14;15.07;;;3.17;;
75139;SDS011;63714;55.812;37.658;2023-04-06T06:17:39;9.38;;;2.72;;
75139;SDS011;63714;55.812;37.658;2023-04-06T06:20:06;5.00;;;1.92;;
75139;SDS011;63714;55.812;37.658;2023-04-06T06:22:32;13.50;;;3.05;;
75139;SDS011;63714;55.812;37.658;2023-04-06T06:24:58;8.85;;;3.42;;
75139;SDS011;63714;55.812;37.658;2023-04-06T06:27:23;7.63;;;3.05;;
75139;SDS011;63714;55.812;37.658;2023-04-06T06:29:49;2.72;;;1.95;;
75139;SDS011;63714;55.812;37.658;2023-04-06T06:32:15;7.68;;;3.35;;
75139;SDS011;63714;55.812;37.658;2023-04-06T06:34:40;8.38;;;2.95;;
75139;SDS011;63714;55.812;37.658;2023-04-06T06:37:06;3.28;;;2.63;;
75139;SDS011;63714;55.812;37.658;2023-04-06T06:39:31;6.10;;;3.08;;
75139;SDS011;63714;55.812;37.658;2023-04-06T06:41:57;4.72;;;2.65;;
75139;SDS011;63714;55.812;37.658;2023-04-06T06:44:25;5.85;;;3.30;;
75139;SDS011;63714;55.812;37.658;2023-04-06T06:46:51;8.82;;;3.70;;
75139;SDS011;63714;55.812;37.658;2023-04-06T06:49:17;5.25;;;2.78;;
75139;SDS011;63714;55.812;37.658;2023-04-06T06:51:43;10.43;;;3.05;;
75139;SDS011;63714;55.812;37.658;2023-04-06T06:54:09;6.88;;;2.83;;
75139;SDS011;63714;55.812;37.658;2023-04-06T06:56:35;6.00;;;3.50;;
75139;SDS011;63714;55.812;37.658;2023-04-06T06:59:04;5.35;;;2.70;;
75139;SDS011;63714;55.812;37.658;2023-04-06T07:01:31;8.70;;;3.72;;
75139;SDS011;63714;55.812;37.658;2023-04-06T07:03:57;9.15;;;4.05;;
75139;SDS011;63714;55.812;37.658;2023-04-06T07:06:23;5.45;;;3.25;;
75139;SDS011;63714;55.812;37.658;2023-04-06T07:08:49;9.27;;;3.67;;
75139;SDS011;63714;55.812;37.658;2023-04-06T07:11:14;5.55;;;3.28;;
75139;SDS011;63714;55.812;37.658;2023-04-06T07:13:40;6.97;;;3.10;;
75139;SDS011;63714;55.812;37.658;2023-04-06T07:16:06;5.20;;;3.25;;
75139;SDS011;63714;55.812;37.658;2023-04-06T07:18:31;6.68;;;3.35;;
75139;SDS011;63714;55.812;37.658;2023-04-06T07:20:57;7.18;;;3.53;;
75139;SDS011;63714;55.812;37.658;2023-04-06T07:23:23;7.95;;;3.42;;
75139;SDS011;63714;55.812;37.658;2023-04-06T07:25:48;8.70;;;3.45;;
75139;SDS011;63714;55.812;37.658;2023-04-06T07:28:16;6.65;;;2.72;;
75139;SDS011;63714;55.812;37.658;2023-04-06T07:30:41;6.63;;;2.38;;
75139;SDS011;63714;55.812;37.658;2023-04-06T07:33:07;5.10;;;2.33;;
75139;SDS011;63714;55.812;37.658;2023-04-06T07:35:34;5.13;;;2.67;;
75139;SDS011;63714;55.812;37.658;2023-04-06T07:38:01;7.72;;;4.40;;
75139;SDS011;63714;55.812;37.658;2023-04-06T07:40:27;11.93;;;3.08;;
75139;SDS011;63714;55.812;37.658;2023-04-06T07:42:53;9.40;;;2.72;;
75139;SDS011;63714;55.812;37.658;2023-04-06T07:45:19;8.15;;;2.97;;
75139;SDS011;63714;55.812;37.658;2023-04-06T07:47:45;13.60;;;3.10;;
75139;SDS011;63714;55.812;37.658;2023-04-06T07:50:11;9.77;;;2.95;;
75139;SDS011;63714;55.812;37.658;2023-04-06T07:52:38;5.97;;;3.22;;
75139;SDS011;63714;55.812;37.658;2023-04-06T07:55:04;9.32;;;2.67;;
75139;SDS011;63714;55.812;37.658;2023-04-06T07:57:30;8.30;;;2.55;;
75139;SDS011;63714;55.812;37.658;2023-04-06T07:59:55;6.68;;;2.33;;
75139;SDS011;63714;55.812;37.658;2023-04-06T08:02:21;4.53;;;2.72;;
75139;SDS011;63714;55.812;37.658;2023-04-06T08:04:47;3.67;;;2.55;;
75139;SDS011;63714;55.812;37.658;2023-04-06T08:07:13;8.90;;;2.30;;
75139;SDS011;63714;55.812;37.658;2023-04-06T08:09:38;8.73;;;2.38;;
75139;SDS011;63714;55.812;37.658;2023-04-06T08:12:04;5.35;;;2.40;;
75139;SDS011;63714;55.812;37.658;2023-04-06T08:14:30;8.23;;;2.08;;
75139;SDS011;63714;55.812;37.658;2023-04-06T08:16:56;5.15;;;2.00;;
75139;SDS011;63714;55.812;37.658;2023-04-06T08:19:22;4.40;;;2.20;;
75139;SDS011;63714;55.812;37.658;2023-04-06T08:21:47;6.57;;;2.63;;
75139;SDS011;63714;55.812;37.658;2023-04-06T08:24:13;5.78;;;1.80;;
75139;SDS011;63714;55.812;37.658;2023-04-06T08:26:40;7.10;;;2.58;;
75139;SDS011;63714;55.812;37.658;2023-04-06T08:29:06;4.68;;;2.00;;
75139;SDS011;63714;55.812;37.658;2023-04-06T08:31:34;9.73;;;2.95;;
75139;SDS011;63714;55.812;37.658;2023-04-06T08:34:01;7.93;;;1.85;;
75139;SDS011;63714;55.812;37.658;2023-04-06T08:36:28;6.03;;;1.90;;
75139;SDS011;63714;55.812;37.658;2023-04-06T08:38:54;8.70;;;2.20;;
75139;SDS011;63714;55.812;37.658;2023-04-06T08:41:20;8.60;;;2.30;;
75139;SDS011;63714;55.812;37.658;2023-04-06T08:43:47;4.55;;;1.67;;
75139;SDS011;63714;55.812;37.658;2023-04-06T08:46:13;4.03;;;1.73;;
75139;SDS011;63714;55.812;37.658;2023-04-06T08:48:39;4.25;;;2.15;;
75139;SDS011;63714;55.812;37.658;2023-04-06T08:51:06;3.90;;;1.85;;
75139;SDS011;63714;55.812;37.658;2023-04-06T08:53:32;4.70;;;2.25;;
75139;SDS011;63714;55.812;37.658;2023-04-06T08:55:58;4.78;;;2.13;;
75139;SDS011;63714;55.812;37.658;2023-04-06T08:58:25;5.65;;;2.17;;
75139;SDS011;63714;55.812;37.658;2023-04-06T09:00:56;8.00;;;2.50;;
75139;SDS011;63714;55.812;37.658;2023-04-06T09:03:22;8.23;;;3.00;;
75139;SDS011;63714;55.812;37.658;2023-04-06T09:05:48;8.80;;;1.98;;
75139;SDS011;63714;55.812;37.658;2023-04-06T09:08:15;5.60;;;1.92;;
75139;SDS011;63714;55.812;37.658;2023-04-06T09:10:41;14.63;;;2.67;;
75139;SDS011;63714;55.812;37.658;2023-04-06T09:13:07;10.40;;;2.25;;
75139;SDS011;63714;55.812;37.658;2023-04-06T09:15:33;8.02;;;2.72;;
75139;SDS011;63714;55.812;37.658;2023-04-06T09:18:00;7.18;;;2.42;;
75139;SDS011;63714;55.812;37.658;2023-04-06T09:20:26;5.75;;;2.03;;
75139;SDS011;63714;55.812;37.658;2023-04-06T09:22:53;4.82;;;1.77;;
75139;SDS011;63714;55.812;37.658;2023-04-06T09:25:20;14.35;;;3.38;;
75139;SDS011;63714;55.812;37.658;2023-04-06T09:27:48;8.35;;;2.10;;
75139;SDS011;63714;55.812;37.658;2023-04-06T09:30:23;6.38;;;2.05;;
75139;SDS011;63714;55.812;37.658;2023-04-06T09:32:54;13.15;;;2.67;;
75139;SDS011;63714;55.812;37.658;2023-04-06T09:35:21;13.27;;;2.47;;
75139;SDS011;63714;55.812;37.658;2023-04-06T09:37:47;7.55;;;2.53;;
75139;SDS011;63714;55.812;37.658;2023-04-06T09:40:14;6.85;;;2.13;;
75139;SDS011;63714;55.812;37.658;2023-04-06T09:42:42;8.30;;;2.60;;
75139;SDS011;63714;55.812;37.658;2023-04-06T09:45:11;4.75;;;2.05;;
75139;SDS011;63714;55.812;37.658;2023-04-06T09:47:37;5.63;;;2.08;;
75139;SDS011;63714;55.812;37.658;2023-04-06T09:50:07;6.57;;;2.53;;
75139;SDS011;63714;55.812;37.658;2023-04-06T09:52:43;5.28;;;2.20;;
75139;SDS011;63714;55.812;37.658;2023-04-06T09:55:17;7.78;;;2.83;;
75139;SDS011;63714;55.812;37.658;2023-04-06T10:00:27;6.18;;;1.88;;
75139;SDS011;63714;55.812;37.658;2023-04-06T10:07:46;4.93;;;1.70;;
75139;SDS011;63714;55.812;37.658;2023-04-06T10:10:16;6.95;;;2.83;;
75139;SDS011;63714;55.812;37.658;2023-04-06T10:12:41;3.03;;;2.00;;
75139;SDS011;63714;55.812;37.658;2023-04-06T10:15:09;4.40;;;2.03;;
75139;SDS011;63714;55.812;37.658;2023-04-06T10:17:35;6.72;;;2.05;;
75139;SDS011;63714;55.812;37.658;2023-04-06T10:22:34;8.35;;;1.60;;
75139;SDS011;63714;55.812;37.658;2023-04-06T10:25:07;5.10;;;2.35;;
75139;SDS011;63714;55.812;37.658;2023-04-06T10:27:33;8.73;;;2.50;;
75139;SDS011;63714;55.812;37.658;2023-04-06T10:30:02;5.70;;;1.90;;
75139;SDS011;63714;55.812;37.658;2023-04-06T10:32:37;5.03;;;1.85;;
75139;SDS011;63714;55.812;37.658;2023-04-06T10:35:07;11.75;;;3.20;;
75139;SDS011;63714;55.812;37.658;2023-04-06T10:37:46;9.00;;;2.28;;
75139;SDS011;63714;55.812;37.658;2023-04-06T10:40:19;9.90;;;2.10;;
75139;SDS011;63714;55.812;37.658;2023-04-06T10:42:53;6.72;;;1.88;;
75139;SDS011;63714;55.812;37.658;2023-04-06T10:45:21;6.75;;;2.15;;
75139;SDS011;63714;55.812;37.658;2023-04-06T10:47:48;7.72;;;2.20;;
75139;SDS011;63714;55.812;37.658;2023-04-06T10:50:14;4.15;;;1.90;;
75139;SDS011;63714;55.812;37.658;2023-04-06T10:52:44;5.45;;;2.13;;
75139;SDS011;63714;55.812;37.658;2023-04-06T10:55:11;6.35;;;2.30;;
75139;SDS011;63714;55.812;37.658;2023-04-06T10:57:39;4.43;;;1.55;;
75139;SDS011;63714;55.812;37.658;2023-04-06T11:00:05;4.22;;;1.48;;
75139;SDS011;63714;55.812;37.658;2023-04-06T11:02:33;6.78;;;1.60;;
75139;SDS011;63714;55.812;37.658;2023-04-06T11:04:59;16.63;;;2.60;;
75139;SDS011;63714;55.812;37.658;2023-04-06T11:07:26;3.17;;;1.60;;
75139;SDS011;63714;55.812;37.658;2023-04-06T11:09:52;8.27;;;1.90;;
75139;SDS011;63714;55.812;37.658;2023-04-06T11:12:22;4.75;;;1.42;;
75139;SDS011;63714;55.812;37.658;2023-04-06T11:14:59;6.22;;;1.85;;
75139;SDS011;63714;55.812;37.658;2023-04-06T11:17:30;4.45;;;1.60;;
75139;SDS011;63714;55.812;37.658;2023-04-06T11:19:57;4.45;;;1.33;;
75139;SDS011;63714;55.812;37.658;2023-04-06T11:22:23;3.95;;;1.67;;
75139;SDS011;63714;55.812;37.658;2023-04-06T11:24:50;4.55;;;1.88;;
75139;SDS011;63714;55.812;37.658;2023-04-06T11:27:16;4.45;;;1.80;;
75139;SDS011;63714;55.812;37.658;2023-04-06T11:29:42;3.55;;;1.30;;
75139;SDS011;63714;55.812;37.658;2023-04-06T11:32:08;6.13;;;1.63;;
75139;SDS011;63714;55.812;37.658;2023-04-06T11:34:38;4.35;;;2.10;;
75139;SDS011;63714;55.812;37.658;2023-04-06T11:37:10;6.38;;;1.55;;
75139;SDS011;63714;55.812;37.658;2023-04-06T11:39:47;6.57;;;1.95;;
75139;SDS011;63714;55.812;37.658;2023-04-06T11:42:25;4.90;;;1.75;;
75139;SDS011;63714;55.812;37.658;2023-04-06T11:44:56;4.07;;;1.58;;
75139;SDS011;63714;55.812;37.658;2023-04-06T11:47:29;3.17;;;1.25;;
75139;SDS011;63714;55.812;37.658;2023-04-06T11:50:09;1.98;;;1.55;;
75139;SDS011;63714;55.812;37.658;2023-04-06T11:52:38;5.65;;;1.58;;
75139;SDS011;63714;55.812;37.658;2023-04-06T11:55:11;5.97;;;1.85;;
75139;SDS011;63714;55.812;37.658;2023-04-06T11:57:38;3.10;;;1.50;;
75139;SDS011;63714;55.812;37.658;2023-04-06T12:00:04;3.30;;;1.48;;
75139;SDS011;63714;55.812;37.658;2023-04-06T12:02:31;6.38;;;1.70;;
75139;SDS011;63714;55.812;37.658;2023-04-06T12:04:57;6.10;;;1.67;;
75139;SDS011;63714;55.812;37.658;2023-04-06T12:07:23;8.80;;;1.90;;
75139;SDS011;63714;55.812;37.658;2023-04-06T12:09:48;3.67;;;1.75;;
75139;SDS011;63714;55.812;37.658;2023-04-06T12:12:14;5.05;;;1.50;;
75139;SDS011;63714;55.812;37.658;2023-04-06T12:14:39;3.05;;;1.48;;
75139;SDS011;63714;55.812;37.658;2023-04-06T12:17:05;4.28;;;1.80;;
75139;SDS011;63714;55.812;37.658;2023-04-06T12:19:30;10.82;;;1.83;;
75139;SDS011;63714;55.812;37.658;2023-04-06T12:21:56;5.75;;;1.23;;
75139;SDS011;63714;55.812;37.658;2023-04-06T12:24:22;3.95;;;1.40;;
75139;SDS011;63714;55.812;37.658;2023-04-06T12:26:48;5.57;;;1.52;;
75139;SDS011;63714;55.812;37.658;2023-04-06T12:29:14;8.80;;;1.67;;
75139;SDS011;63714;55.812;37.658;2023-04-06T12:31:40;3.40;;;1.42;;
75139;SDS011;63714;55.812;37.658;2023-04-06T12:34:10;3.35;;;1.60;;
75139;SDS011;63714;55.812;37.658;2023-04-06T12:36:36;5.95;;;1.30;;
75139;SDS011;63714;55.812;37.658;2023-04-06T12:39:02;3.55;;;1.40;;
75139;SDS011;63714;55.812;37.658;2023-04-06T12:41:28;3.63;;;1.65;;
75139;SDS011;63714;55.812;37.658;2023-04-06T12:43:54;3.15;;;1.45;;
75139;SDS011;63714;55.812;37.658;2023-04-06T12:46:20;3.55;;;1.58;;
75139;SDS011;63714;55.812;37.658;2023-04-06T12:48:47;3.80;;;1.17;;
75139;SDS011;63714;55.812;37.658;2023-04-06T12:51:13;7.07;;;1.40;;
75139;SDS011;63714;55.812;37.658;2023-04-06T12:53:38;2.88;;;1.20;;
75139;SDS011;63714;55.812;37.658;2023-04-06T12:56:14;3.15;;;1.00;;
75139;SDS011;63714;55.812;37.658;2023-04-06T12:58:42;4.85;;;1.45;;
75139;SDS011;63714;55.812;37.658;2023-04-06T13:01:08;4.13;;;1.25;;
75139;SDS011;63714;55.812;37.658;2023-04-06T13:03:34;2.63;;;1.40;;
75139;SDS011;63714;55.812;37.658;2023-04-06T13:06:01;3.33;;;1.48;;
75139;SDS011;63714;55.812;37.658;2023-04-06T13:08:27;5.70;;;1.60;;
75139;SDS011;63714;55.812;37.658;2023-04-06T13:10:52;3.17;;;1.23;;
75139;SDS011;63714;55.812;37.658;2023-04-06T13:13:28;6.90;;;1.30;;
75139;SDS011;63714;55.812;37.658;2023-04-06T13:15:58;2.90;;;1.50;;
75139;SDS011;63714;55.812;37.658;2023-04-06T13:18:26;6.90;;;1.30;;
75139;SDS011;63714;55.812;37.658;2023-04-06T13:20:52;5.82;;;1.48;;
75139;SDS011;63714;55.812;37.658;2023-04-06T13:23:17;6.43;;;1.50;;
75139;SDS011;63714;55.812;37.658;2023-04-06T13:25:43;3.40;;;1.15;;
75139;SDS011;63714;55.812;37.658;2023-04-06T13:28:09;5.20;;;1.40;;
75139;SDS011;63714;55.812;37.658;2023-04-06T13:30:35;2.45;;;1.00;;
75139;SDS011;63714;55.812;37.658;2023-04-06T13:33:01;4.05;;;1.10;;
75139;SDS011;63714;55.812;37.658;2023-04-06T13:35:27;3.53;;;0.93;;
75139;SDS011;63714;55.812;37.658;2023-04-06T13:37:53;4.72;;;1.35;;
75139;SDS011;63714;55.812;37.658;2023-04-06T13:40:18;1.80;;;0.95;;
75139;SDS011;63714;55.812;37.658;2023-04-06T13:42:44;2.42;;;1.10;;
75139;SDS011;63714;55.812;37.658;2023-04-06T13:45:11;5.72;;;1.23;;
75139;SDS011;63714;55.812;37.658;2023-04-06T13:47:37;5.22;;;1.05;;
75139;SDS011;63714;55.812;37.658;2023-04-06T13:50:03;5.97;;;1.10;;
75139;SDS011;63714;55.812;37.658;2023-04-06T13:52:29;6.72;;;1.17;;
75139;SDS011;63714;55.812;37.658;2023-04-06T13:54:55;1.58;;;0.80;;
75139;SDS011;63714;55.812;37.658;2023-04-06T13:57:20;3.92;;;1.23;;
75139;SDS011;63714;55.812;37.658;2023-04-06T13:59:46;3.63;;;0.90;;
75139;SDS011;63714;55.812;37.658;2023-04-06T14:02:12;2.35;;;1.00;;
75139;SDS011;63714;55.812;37.658;2023-04-06T14:04:37;4.95;;;1.10;;
75139;SDS011;63714;55.812;37.658;2023-04-06T14:07:03;4.22;;;1.30;;
75139;SDS011;63714;55.812;37.658;2023-04-06T14:09:29;5.80;;;0.98;;
75139;SDS011;63714;55.812;37.658;2023-04-06T14:11:55;4.60;;;1.10;;
75139;SDS011;63714;55.812;37.658;2023-04-06T14:14:22;4.60;;;0.90;;
75139;SDS011;63714;55.812;37.658;2023-04-06T14:16:48;11.10;;;1.48;;
75139;SDS011;63714;55.812;37.658;2023-04-06T14:19:14;1.85;;;1.08;;
75139;SDS011;63714;55.812;37.658;2023-04-06T14:21:43;4.40;;;0.80;;
75139;SDS011;63714;55.812;37.658;2023-04-06T14:24:11;2.47;;;0.70;;
75139;SDS011;63714;55.812;37.658;2023-04-06T14:26:38;2.00;;;0.82;;
75139;SDS011;63714;55.812;37.658;2023-04-06T14:29:04;2.50;;;0.90;;
75139;SDS011;63714;55.812;37.658;2023-04-06T14:31:31;3.97;;;0.88;;
75139;SDS011;63714;55.812;37.658;2023-04-06T14:33:57;3.22;;;0.73;;
75139;SDS011;63714;55.812;37.658;2023-04-06T14:36:25;3.75;;;0.80;;
75139;SDS011;63714;55.812;37.658;2023-04-06T14:41:19;1.02;;;0.60;;
75139;SDS011;63714;55.812;37.658;2023-04-06T14:43:46;2.67;;;0.90;;
75139;SDS011;63714;55.812;37.658;2023-04-06T14:46:12;1.90;;;1.02;;